createdAt,value
2018-06-01T00:00:17.572Z,10.53
2018-06-01T00:03:35.805Z,10.23
2018-06-01T00:06:53.271Z,11.63
2018-06-01T00:10:10.742Z,10.33
2018-06-01T00:13:28.219Z,9.47
2018-06-01T00:16:45.692Z,10.70
2018-06-01T00:20:03.169Z,10.80
2018-06-01T00:23:21.411Z,9.50
2018-06-01T00:26:39.651Z,9.10
2018-06-01T00:29:57.124Z,9.63
2018-06-01T00:33:14.603Z,8.77
2018-06-01T00:36:32.080Z,9.53
2018-06-01T00:39:49.551Z,8.40
2018-06-01T00:43:07.023Z,8.40
2018-06-01T00:46:24.492Z,9.00
2018-06-01T00:49:41.960Z,10.53
2018-06-01T00:52:59.427Z,9.73
2018-06-01T00:56:16.911Z,10.80
2018-06-01T00:59:34.387Z,9.60
2018-06-01T01:02:51.865Z,7.87
2018-06-01T01:06:09.343Z,8.67
2018-06-01T01:09:26.810Z,5.60
2018-06-01T01:12:44.287Z,11.20
2018-06-01T01:16:02.531Z,6.80
2018-06-01T01:19:20.766Z,8.33
2018-06-01T01:22:38.238Z,11.07
2018-06-01T01:25:55.707Z,9.80
2018-06-01T01:29:13.158Z,6.60
2018-06-01T01:32:31.399Z,9.43
2018-06-01T01:35:48.867Z,6.90
2018-06-01T01:39:06.343Z,12.10
2018-06-01T01:42:23.816Z,8.50
2018-06-01T01:45:41.282Z,9.57
2018-06-01T01:48:58.748Z,10.70
2018-06-01T01:52:16.228Z,10.67
2018-06-01T01:55:33.700Z,9.60
2018-06-01T01:58:52.071Z,10.20
2018-06-01T02:02:10.337Z,7.60
2018-06-01T02:05:27.814Z,10.20
2018-06-01T02:08:46.050Z,8.57
2018-06-01T02:12:03.520Z,9.37
2018-06-01T02:15:21.753Z,9.00
2018-06-01T02:18:39.229Z,8.37
2018-06-01T02:21:56.715Z,8.83
2018-06-01T02:25:14.176Z,6.77
2018-06-01T02:28:32.426Z,8.70
2018-06-01T02:31:49.899Z,7.93
2018-06-01T02:35:07.360Z,8.93
2018-06-01T02:38:24.841Z,9.57
2018-06-01T02:41:42.316Z,8.57
2018-06-01T02:44:59.797Z,7.53
2018-06-01T02:48:17.276Z,5.53
2018-06-01T02:51:34.764Z,6.10
2018-06-01T02:54:52.230Z,5.97
2018-06-01T02:58:09.709Z,5.87
2018-06-01T03:01:27.188Z,6.40
2018-06-01T03:04:44.652Z,5.63
2018-06-01T03:08:02.897Z,7.07
2018-06-01T03:11:21.133Z,5.87
2018-06-01T03:14:39.389Z,6.67
2018-06-01T03:17:57.627Z,5.63
2018-06-01T03:21:15.856Z,4.33
2018-06-01T03:24:33.329Z,4.50
2018-06-01T03:27:50.802Z,9.97
2018-06-01T03:31:08.280Z,5.47
2018-06-01T03:34:26.516Z,5.63
2018-06-01T03:37:44.758Z,6.03
2018-06-01T03:41:02.224Z,7.57
2018-06-01T03:44:19.697Z,4.17
2018-06-01T03:47:37.164Z,5.80
2018-06-01T03:50:55.397Z,6.73
2018-06-01T03:54:12.863Z,5.57
2018-06-01T03:57:30.339Z,4.87
2018-06-01T04:00:48.059Z,5.53
2018-06-01T04:04:05.589Z,5.00
2018-06-01T04:07:23.055Z,5.87
2018-06-01T04:10:41.288Z,6.53
2018-06-01T04:13:58.768Z,5.10
2018-06-01T04:17:16.241Z,4.10
2018-06-01T04:20:33.699Z,5.37
2018-06-01T04:23:51.945Z,5.83
2018-06-01T04:27:10.185Z,4.00
2018-06-01T04:30:27.656Z,8.37
2018-06-01T04:33:45.218Z,6.90
2018-06-01T04:37:02.696Z,5.80
2018-06-01T04:40:20.933Z,3.97
2018-06-01T04:43:39.180Z,5.10
2018-06-01T04:46:57.412Z,7.83
2018-06-01T04:50:14.884Z,5.73
2018-06-01T04:53:32.363Z,7.13
2018-06-01T04:56:49.824Z,6.00
2018-06-01T05:00:08.072Z,3.17
2018-06-01T05:03:26.322Z,8.47
2018-06-01T05:06:44.551Z,4.70
2018-06-01T05:10:02.017Z,4.30
2018-06-01T05:13:19.500Z,4.50
2018-06-01T05:16:36.992Z,7.43
2018-06-01T05:19:54.442Z,8.60
2018-06-01T05:23:11.906Z,7.30
2018-06-01T05:26:30.135Z,4.17
2018-06-01T05:29:47.616Z,3.63
2018-06-01T05:33:05.095Z,4.70
2018-06-01T05:36:22.562Z,5.83
2018-06-01T05:39:40.030Z,6.43
2018-06-01T05:42:57.501Z,9.47
2018-06-01T05:46:14.956Z,3.50
2018-06-01T05:49:32.429Z,4.67
2018-06-01T05:52:49.901Z,4.03
2018-06-01T05:56:08.132Z,5.83
2018-06-01T05:59:25.595Z,6.67
2018-06-01T06:02:43.073Z,3.23
2018-06-01T06:06:00.528Z,4.23
2018-06-01T06:09:18.760Z,5.40
2018-06-01T06:12:36.237Z,4.63
2018-06-01T06:15:53.701Z,4.43
2018-06-01T06:19:11.178Z,4.07
2018-06-01T06:22:29.421Z,2.40
2018-06-01T06:25:47.665Z,3.33
2018-06-01T06:29:05.912Z,4.13
2018-06-01T06:32:24.138Z,2.13
2018-06-01T06:35:41.608Z,3.30
2018-06-01T06:38:59.092Z,4.70
2018-06-01T06:42:16.549Z,4.23
2018-06-01T06:45:34.803Z,2.73
2018-06-01T06:48:53.044Z,3.73
2018-06-01T06:52:11.276Z,2.53
2018-06-01T06:55:28.745Z,3.87
2018-06-01T06:58:46.232Z,3.13
2018-06-01T07:02:03.692Z,3.37
2018-06-01T07:05:21.949Z,4.27
2018-06-01T07:08:39.483Z,2.33
2018-06-01T07:11:56.971Z,5.30
2018-06-01T07:15:14.435Z,3.27
2018-06-01T07:18:31.906Z,2.53
2018-06-01T07:21:49.373Z,2.47
2018-06-01T07:25:06.850Z,3.83
2018-06-01T07:28:24.307Z,1.60
2018-06-01T07:31:41.781Z,1.53
2018-06-01T07:34:59.286Z,4.00
2018-06-01T07:38:16.760Z,1.30
2018-06-01T07:41:34.237Z,2.47
2018-06-01T07:44:51.712Z,1.20
2018-06-01T07:48:09.188Z,9.60
2018-06-01T07:51:26.643Z,4.50
2018-06-01T07:54:44.129Z,2.53
2018-06-01T07:58:01.601Z,2.40
2018-06-01T08:01:19.076Z,2.43
2018-06-01T08:04:36.551Z,1.40
2018-06-01T08:07:54.026Z,1.80
2018-06-01T08:11:11.510Z,5.37
2018-06-01T08:14:28.989Z,2.67
2018-06-01T08:17:46.450Z,1.87
2018-06-01T08:21:03.921Z,1.53
2018-06-01T08:24:22.158Z,2.10
2018-06-01T08:27:39.617Z,2.77
2018-06-01T08:30:57.107Z,1.77
2018-06-01T08:34:14.581Z,2.73
2018-06-01T08:37:32.060Z,1.20
2018-06-01T08:40:49.540Z,1.50
2018-06-01T08:44:07.020Z,2.13
2018-06-01T08:47:24.483Z,4.70
2018-06-01T08:50:42.712Z,2.10
2018-06-01T08:54:00.175Z,2.90
2018-06-01T08:57:17.627Z,1.23
2018-06-01T09:00:35.121Z,2.63
2018-06-01T09:03:53.364Z,12.40
2018-06-01T09:07:11.604Z,1.47
2018-06-01T09:10:29.847Z,2.20
2018-06-01T09:13:47.321Z,1.93
2018-06-01T09:17:04.779Z,2.10
2018-06-01T09:20:22.266Z,1.70
2018-06-01T09:23:39.751Z,1.50
2018-06-01T09:26:58.041Z,2.80
2018-06-01T09:30:16.267Z,2.67
2018-06-01T09:33:33.724Z,1.50
2018-06-01T09:36:51.207Z,2.97
2018-06-01T09:40:08.692Z,3.90
2018-06-01T09:43:26.154Z,3.40
2018-06-01T09:46:43.646Z,2.00
2018-06-01T09:50:01.122Z,1.77
2018-06-01T09:53:18.592Z,2.20
2018-06-01T09:56:36.825Z,1.90
2018-06-01T09:59:55.083Z,2.27
2018-06-01T10:03:13.311Z,2.73
2018-06-01T10:06:30.783Z,1.50
2018-06-01T10:13:42.470Z,1.97
2018-06-01T10:16:59.940Z,2.00
2018-06-01T10:20:17.418Z,2.53
2018-06-01T10:23:34.892Z,1.27
2018-06-01T10:26:52.359Z,3.83
2018-06-01T10:30:09.833Z,2.57
2018-06-01T10:33:28.060Z,3.70
2018-06-01T10:36:45.548Z,3.87
2018-06-01T10:40:03.032Z,2.13
2018-06-01T10:43:21.288Z,3.17
2018-06-01T10:46:39.529Z,3.43
2018-06-01T10:49:57.764Z,2.13
2018-06-01T10:53:15.232Z,4.30
2018-06-01T10:56:32.715Z,3.07
2018-06-01T10:59:50.201Z,5.97
2018-06-01T11:03:07.669Z,2.97
2018-06-01T11:06:25.169Z,3.73
2018-06-01T11:09:42.637Z,3.70
2018-06-01T11:13:00.104Z,3.07
2018-06-01T11:16:17.593Z,5.83
2018-06-01T11:19:35.073Z,2.20
2018-06-01T11:22:52.537Z,2.53
2018-06-01T11:26:10.019Z,2.47
2018-06-01T11:29:28.247Z,2.90
2018-06-01T11:32:46.491Z,2.47
2018-06-01T11:36:03.956Z,1.90
2018-06-01T11:39:21.418Z,1.60
2018-06-01T11:42:38.899Z,2.07
2018-06-01T11:45:57.151Z,1.47
2018-06-01T11:52:39.351Z,2.27
2018-06-01T11:55:56.831Z,3.27
2018-06-01T11:59:14.295Z,3.33
2018-06-01T12:02:31.767Z,2.73
2018-06-01T12:05:50.009Z,1.83
2018-06-01T12:09:08.235Z,3.77
2018-06-01T12:12:25.705Z,3.27
2018-06-01T12:15:43.209Z,2.03
2018-06-01T12:19:00.675Z,1.80
2018-06-01T12:22:18.144Z,2.53
2018-06-01T12:25:35.613Z,3.20
2018-06-01T12:28:53.847Z,1.80
2018-06-01T12:32:12.097Z,3.57
2018-06-01T12:35:29.572Z,2.20
2018-06-01T12:38:47.033Z,2.77
2018-06-01T12:42:04.524Z,2.27
2018-06-01T12:45:21.996Z,1.90
2018-06-01T12:48:39.481Z,2.33
2018-06-01T12:51:56.963Z,2.62
2018-06-01T12:55:14.432Z,3.47
2018-06-01T12:58:31.892Z,2.20
2018-06-01T13:01:49.381Z,1.97
2018-06-01T13:05:06.861Z,1.93
2018-06-01T13:08:24.323Z,2.00
2018-06-01T13:11:42.565Z,1.77
2018-06-01T13:15:00.066Z,2.17
2018-06-01T13:18:17.520Z,2.20
2018-06-01T13:21:34.988Z,2.10
2018-06-01T13:24:52.452Z,2.30
2018-06-01T13:28:09.919Z,3.00
2018-06-01T13:31:27.392Z,1.90
2018-06-01T13:34:44.860Z,3.20
2018-06-01T13:38:02.331Z,1.47
2018-06-01T13:41:19.812Z,1.77
2018-06-01T13:44:37.272Z,1.27
2018-06-01T13:47:55.509Z,1.20
2018-06-01T13:51:12.980Z,2.42
2018-06-01T13:54:30.441Z,1.95
2018-06-01T13:57:47.913Z,12.47
2018-06-01T14:01:06.152Z,4.33
2018-06-01T14:04:23.613Z,2.93
2018-06-01T14:07:41.087Z,2.50
2018-06-01T14:10:58.563Z,1.87
2018-06-01T14:14:16.795Z,2.43
2018-06-01T14:17:35.025Z,1.53
2018-06-01T14:20:52.936Z,2.27
2018-06-01T14:24:10.408Z,3.53
2018-06-01T14:27:27.871Z,2.23
2018-06-01T14:30:45.352Z,3.10
2018-06-01T14:34:03.015Z,4.53
2018-06-01T14:37:20.520Z,3.58
2018-06-01T14:40:38.082Z,2.73
2018-06-01T14:43:55.492Z,2.03
2018-06-01T14:47:13.016Z,1.47
2018-06-01T14:50:30.461Z,1.73
2018-06-01T14:53:48.697Z,2.43
2018-06-01T14:57:06.163Z,1.97
2018-06-01T15:00:23.627Z,2.53
2018-06-01T15:03:41.095Z,3.23
2018-06-01T15:06:59.343Z,1.42
2018-06-01T15:10:17.357Z,1.60
2018-06-01T15:13:34.842Z,4.20
2018-06-01T15:16:52.328Z,3.80
2018-06-01T15:20:09.788Z,5.43
2018-06-01T15:23:28.032Z,2.13
2018-06-01T15:26:46.273Z,1.70
2018-06-01T15:30:04.565Z,1.60
2018-06-01T15:33:22.038Z,2.53
2018-06-01T15:36:40.409Z,2.97
2018-06-01T15:39:57.899Z,1.70
2018-06-01T15:43:15.371Z,2.23
2018-06-01T15:46:33.612Z,5.13
2018-06-01T15:49:51.920Z,3.37
2018-06-01T15:53:09.404Z,2.67
2018-06-01T15:56:26.888Z,2.47
2018-06-01T15:59:44.352Z,2.33
2018-06-01T16:03:02.592Z,1.47
2018-06-01T16:06:20.064Z,1.50
2018-06-01T16:09:37.544Z,1.37
2018-06-01T16:12:55.016Z,3.20
2018-06-01T16:16:12.477Z,2.27
2018-06-01T16:19:29.954Z,1.57
2018-06-01T16:22:48.193Z,2.00
2018-06-01T16:26:06.448Z,3.13
2018-06-01T16:29:24.675Z,1.83
2018-06-01T16:32:42.155Z,2.33
2018-06-01T16:35:59.636Z,1.33
2018-06-01T16:39:17.110Z,3.30
2018-06-01T16:42:34.592Z,2.33
2018-06-01T16:45:52.053Z,2.53
2018-06-01T16:49:10.283Z,3.30
2018-06-01T16:52:27.937Z,2.13
2018-06-01T16:55:45.456Z,2.97
2018-06-01T16:59:03.704Z,2.83
2018-06-01T17:02:22.017Z,1.53
2018-06-01T17:05:39.488Z,2.83
2018-06-01T17:08:57.729Z,2.27
2018-06-01T17:12:15.959Z,3.17
2018-06-01T17:15:34.950Z,3.20
2018-06-01T17:18:53.179Z,1.97
2018-06-01T17:22:10.663Z,2.60
2018-06-01T17:25:28.125Z,3.90
2018-06-01T17:28:45.596Z,2.27
2018-06-01T17:32:03.076Z,1.80
2018-06-01T17:35:20.552Z,2.00
2018-06-01T17:38:38.029Z,2.30
2018-06-01T17:41:55.492Z,2.53
2018-06-01T17:45:12.990Z,1.97
2018-06-01T17:48:30.459Z,2.23
2018-06-01T17:51:48.692Z,7.40
2018-06-01T17:55:06.204Z,6.17
2018-06-01T17:58:23.675Z,3.73
2018-06-01T18:01:41.912Z,4.27
2018-06-01T18:05:00.161Z,3.17
2018-06-01T18:08:18.403Z,2.07
2018-06-01T18:11:35.856Z,3.77
2018-06-01T18:14:53.332Z,2.13
2018-06-01T18:18:10.832Z,2.57
2018-06-01T18:21:28.325Z,4.67
2018-06-01T18:24:46.578Z,4.00
2018-06-01T18:28:04.839Z,2.20
2018-06-01T18:31:23.111Z,1.80
2018-06-01T18:34:40.597Z,2.67
2018-06-01T18:37:58.857Z,3.93
2018-06-01T18:41:17.087Z,3.37
2018-06-01T18:44:34.554Z,3.57
2018-06-01T18:47:52.052Z,2.53
2018-06-01T18:51:09.516Z,3.07
2018-06-01T18:54:27.007Z,4.17
2018-06-01T18:57:44.485Z,2.30
2018-06-01T19:01:01.952Z,2.63
2018-06-01T19:04:19.436Z,4.10
2018-06-01T19:07:36.908Z,4.27
2018-06-01T19:10:54.383Z,2.50
2018-06-01T19:14:12.618Z,3.70
2018-06-01T19:17:30.945Z,5.37
2018-06-01T19:20:48.465Z,5.10
2018-06-01T19:24:05.941Z,3.83
2018-06-01T19:27:24.160Z,3.50
2018-06-01T19:30:41.690Z,2.87
2018-06-01T19:33:59.172Z,2.93
2018-06-01T19:37:16.636Z,3.57
2018-06-01T19:40:34.113Z,5.73
2018-06-01T19:43:51.605Z,2.60
2018-06-01T19:47:09.072Z,4.07
2018-06-01T19:50:26.651Z,6.13
2018-06-01T19:53:44.209Z,5.27
2018-06-01T19:57:01.763Z,3.93
2018-06-01T20:00:19.995Z,3.77
2018-06-01T20:03:37.463Z,2.80
2018-06-01T20:06:54.953Z,3.00
2018-06-01T20:10:12.420Z,4.17
2018-06-01T20:13:29.892Z,3.67
2018-06-01T20:16:47.355Z,2.90
2018-06-01T20:20:05.619Z,3.50
2018-06-01T20:23:23.102Z,3.97
2018-06-01T20:26:40.553Z,3.33
2018-06-01T20:29:58.016Z,4.50
2018-06-01T20:33:15.502Z,5.17
2018-06-01T20:36:32.973Z,3.83
2018-06-01T20:39:50.439Z,3.17
2018-06-01T20:43:07.911Z,3.93
2018-06-01T20:46:26.152Z,4.90
2018-06-01T20:49:44.400Z,4.20
2018-06-01T20:53:01.869Z,5.37
2018-06-01T20:56:19.332Z,3.93
2018-06-01T20:59:36.807Z,3.47
2018-06-01T21:02:54.272Z,3.53
2018-06-01T21:06:11.745Z,5.40
2018-06-01T21:09:29.230Z,5.87
2018-06-01T21:12:46.688Z,4.53
2018-06-01T21:16:04.170Z,3.70
2018-06-01T21:19:21.665Z,4.80
2018-06-01T21:22:39.137Z,3.37
2018-06-01T21:25:56.673Z,4.63
2018-06-01T21:29:14.149Z,3.83
2018-06-01T21:32:31.612Z,4.20
2018-06-01T21:35:49.092Z,4.10
2018-06-01T21:39:06.593Z,3.87
2018-06-01T21:42:24.056Z,3.73
2018-06-01T21:45:41.529Z,3.90
2018-06-01T21:48:59.763Z,6.40
2018-06-01T21:52:17.989Z,5.60
2018-06-01T21:55:35.810Z,4.03
2018-06-01T21:58:53.293Z,4.03
2018-06-01T22:02:11.526Z,4.30
2018-06-01T22:05:29.755Z,4.73
2018-06-01T22:08:47.229Z,4.83
2018-06-01T22:12:04.715Z,5.13
2018-06-01T22:15:22.187Z,4.87
2018-06-01T22:18:39.762Z,4.70
2018-06-01T22:21:57.236Z,5.70
2018-06-01T22:25:15.487Z,5.37
2018-06-01T22:28:33.715Z,5.07
2018-06-01T22:31:51.187Z,4.77
2018-06-01T22:35:08.668Z,6.07
2018-06-01T22:38:26.132Z,5.37
2018-06-01T22:41:43.601Z,5.00
2018-06-01T22:45:01.101Z,4.97
2018-06-01T22:48:18.591Z,5.03
2018-06-01T22:51:36.063Z,4.37
2018-06-01T22:54:53.532Z,5.00
2018-06-01T22:58:11.039Z,5.00
2018-06-01T23:01:29.236Z,8.43
2018-06-01T23:04:47.548Z,5.17
2018-06-01T23:08:05.014Z,6.10
2018-06-01T23:11:22.494Z,5.30
2018-06-01T23:14:40.028Z,5.47
2018-06-01T23:17:58.212Z,4.67
2018-06-01T23:21:15.675Z,6.07
2018-06-01T23:24:33.147Z,7.37
2018-06-01T23:27:50.609Z,5.87
2018-06-01T23:31:08.843Z,7.63
2018-06-01T23:34:26.320Z,6.83
2018-06-01T23:37:43.783Z,7.03
2018-06-01T23:41:01.271Z,7.43
2018-06-01T23:44:18.744Z,5.80
2018-06-01T23:47:36.224Z,6.87
2018-06-01T23:50:54.468Z,7.20
2018-06-01T23:54:12.716Z,5.33
2018-06-01T23:57:30.952Z,6.77
